sensor_id;sensor_type;location;lat;lon;timestamp;pressure;altitude;pressure_sealevel;temperature;humidity
63500;BME280;49654;51.142;14.924;2022-12-16T00:01:16;98513.47;;;-3.40;66.61
63500;BME280;49654;51.142;14.924;2022-12-16T00:03:46;98514.78;;;-3.60;67.28
63500;BME280;49654;51.142;14.924;2022-12-16T00:06:15;98491.22;;;-3.88;67.80
63500;BME280;49654;51.142;14.924;2022-12-16T00:08:43;98368.53;;;-4.50;68.13
63500;BME280;49654;51.142;14.924;2022-12-16T00:11:11;98509.31;;;-3.54;67.74
63500;BME280;49654;51.142;14.924;2022-12-16T00:13:39;98502.63;;;-3.55;68.35
63500;BME280;49654;51.142;14.924;2022-12-16T00:16:08;98504.72;;;-3.36;68.29
63500;BME280;49654;51.142;14.924;2022-12-16T00:18:36;98475.69;;;-3.58;67.46
63500;BME280;49654;51.142;14.924;2022-12-16T00:21:03;98491.84;;;-3.59;67.74
63500;BME280;49654;51.142;14.924;2022-12-16T00:23:31;98489.09;;;-3.81;68.87
63500;BME280;49654;51.142;14.924;2022-12-16T00:26:00;98491.84;;;-3.59;68.58
63500;BME280;49654;51.142;14.924;2022-12-16T00:28:27;98479.63;;;-3.28;68.74
63500;BME280;49654;51.142;14.924;2022-12-16T00:30:55;98357.00;;;-4.16;68.17
63500;BME280;49654;51.142;14.924;2022-12-16T00:33:23;98480.63;;;-3.31;68.39
63500;BME280;49654;51.142;14.924;2022-12-16T00:35:51;98483.19;;;-3.43;68.62
63500;BME280;49654;51.142;14.924;2022-12-16T00:38:19;98468.69;;;-3.54;68.65
63500;BME280;49654;51.142;14.924;2022-12-16T00:40:46;98480.00;;;-3.21;68.61
63500;BME280;49654;51.142;14.924;2022-12-16T00:43:15;98483.41;;;-2.97;67.74
63500;BME280;49654;51.142;14.924;2022-12-16T00:45:46;98467.72;;;-3.15;66.56
63500;BME280;49654;51.142;14.924;2022-12-16T00:48:14;98396.81;;;-3.42;67.43
63500;BME280;49654;51.142;14.924;2022-12-16T00:50:44;98313.16;;;-3.80;67.01
63500;BME280;49654;51.142;14.924;2022-12-16T00:53:11;98452.44;;;-3.02;67.29
63500;BME280;49654;51.142;14.924;2022-12-16T00:55:38;98468.34;;;-2.87;67.33
63500;BME280;49654;51.142;14.924;2022-12-16T00:58:05;98472.00;;;-2.91;67.75
63500;BME280;49654;51.142;14.924;2022-12-16T01:00:34;98465.72;;;-2.86;67.56
63500;BME280;49654;51.142;14.924;2022-12-16T01:03:01;98469.34;;;-2.77;67.41
63500;BME280;49654;51.142;14.924;2022-12-16T01:05:29;98465.47;;;-2.83;67.53
63500;BME280;49654;51.142;14.924;2022-12-16T01:07:57;98453.22;;;-3.25;67.62
63500;BME280;49654;51.142;14.924;2022-12-16T01:10:24;98467.06;;;-2.93;68.72
63500;BME280;49654;51.142;14.924;2022-12-16T01:12:51;98481.78;;;-2.85;68.35
63500;BME280;49654;51.142;14.924;2022-12-16T01:15:19;98471.34;;;-2.69;68.67
63500;BME280;49654;51.142;14.924;2022-12-16T01:17:47;98474.47;;;-2.66;68.65
63500;BME280;49654;51.142;14.924;2022-12-16T01:20:14;98448.63;;;-2.84;68.40
63500;BME280;49654;51.142;14.924;2022-12-16T01:22:41;98470.78;;;-2.62;68.66
63500;BME280;49654;51.142;14.924;2022-12-16T01:25:09;98477.13;;;-2.43;67.70
63500;BME280;49654;51.142;14.924;2022-12-16T01:27:37;98494.75;;;-2.29;67.58
63500;BME280;49654;51.142;14.924;2022-12-16T01:30:05;98495.22;;;-2.24;66.94
63500;BME280;49654;51.142;14.924;2022-12-16T01:32:33;98484.44;;;-2.39;67.21
63500;BME280;49654;51.142;14.924;2022-12-16T01:35:02;98417.22;;;-2.83;67.20
63500;BME280;49654;51.142;14.924;2022-12-16T01:37:30;98488.66;;;-2.27;66.90
63500;BME280;49654;51.142;14.924;2022-12-16T01:39:57;98483.56;;;-2.27;67.20
63500;BME280;49654;51.142;14.924;2022-12-16T01:42:24;98488.84;;;-2.30;67.03
63500;BME280;49654;51.142;14.924;2022-12-16T01:44:53;98466.19;;;-2.33;67.18
63500;BME280;49654;51.142;14.924;2022-12-16T01:47:24;98472.34;;;-2.24;66.63
63500;BME280;49654;51.142;14.924;2022-12-16T01:49:53;98453.25;;;-2.30;66.84
63500;BME280;49654;51.142;14.924;2022-12-16T01:52:28;98430.06;;;-2.49;67.48
63500;BME280;49654;51.142;14.924;2022-12-16T01:54:59;98463.56;;;-2.20;66.89
63500;BME280;49654;51.142;14.924;2022-12-16T01:57:32;98459.63;;;-2.24;67.34
63500;BME280;49654;51.142;14.924;2022-12-16T02:00:03;98403.94;;;-2.51;66.82
63500;BME280;49654;51.142;14.924;2022-12-16T02:02:32;98458.25;;;-2.17;66.49
63500;BME280;49654;51.142;14.924;2022-12-16T02:04:59;98455.59;;;-2.27;66.89
63500;BME280;49654;51.142;14.924;2022-12-16T02:07:57;98456.06;;;-2.21;67.16
63500;BME280;49654;51.142;14.924;2022-12-16T02:10:32;98450.50;;;-2.15;66.67
63500;BME280;49654;51.142;14.924;2022-12-16T02:13:08;98395.59;;;-2.64;66.54
63500;BME280;49654;51.142;14.924;2022-12-16T02:15:41;98453.06;;;-2.15;67.03
63500;BME280;49654;51.142;14.924;2022-12-16T02:18:16;98452.84;;;-2.12;67.14
63500;BME280;49654;51.142;14.924;2022-12-16T02:24:18;98461.41;;;-2.13;67.76
63500;BME280;49654;51.142;14.924;2022-12-16T02:27:02;98457.47;;;-2.06;67.27
63500;BME280;49654;51.142;14.924;2022-12-16T02:29:57;98420.72;;;-2.13;67.34
63500;BME280;49654;51.142;14.924;2022-12-16T02:32:34;98437.63;;;-2.01;67.15
63500;BME280;49654;51.142;14.924;2022-12-16T02:35:08;98442.91;;;-2.04;67.51
63500;BME280;49654;51.142;14.924;2022-12-16T02:37:40;98352.91;;;-2.48;67.48
63500;BME280;49654;51.142;14.924;2022-12-16T02:40:15;98434.50;;;-1.82;66.99
63500;BME280;49654;51.142;14.924;2022-12-16T02:42:50;98427.09;;;-1.85;66.99
63500;BME280;49654;51.142;14.924;2022-12-16T02:45:23;98428.03;;;-1.86;67.16
63500;BME280;49654;51.142;14.924;2022-12-16T02:47:53;98418.53;;;-1.95;67.46
63500;BME280;49654;51.142;14.924;2022-12-16T02:50:22;98418.28;;;-2.04;67.87
63500;BME280;49654;51.142;14.924;2022-12-16T02:52:51;98395.38;;;-2.15;68.53
63500;BME280;49654;51.142;14.924;2022-12-16T02:55:22;98416.13;;;-1.97;68.82
63500;BME280;49654;51.142;14.924;2022-12-16T02:58:03;98410.56;;;-1.80;69.11
63500;BME280;49654;51.142;14.924;2022-12-16T03:00:40;98421.78;;;-1.60;69.08
63500;BME280;49654;51.142;14.924;2022-12-16T03:03:14;98390.66;;;-1.63;68.96
63500;BME280;49654;51.142;14.924;2022-12-16T03:05:45;98408.47;;;-1.52;69.38
63500;BME280;49654;51.142;14.924;2022-12-16T03:08:17;98412.88;;;-1.43;69.26
63500;BME280;49654;51.142;14.924;2022-12-16T03:10:47;98370.06;;;-1.71;69.34
63500;BME280;49654;51.142;14.924;2022-12-16T03:13:17;98380.97;;;-1.58;69.27
63500;BME280;49654;51.142;14.924;2022-12-16T03:15:46;98426.88;;;-1.26;69.05
63500;BME280;49654;51.142;14.924;2022-12-16T03:18:17;98389.75;;;-1.73;69.51
63500;BME280;49654;51.142;14.924;2022-12-16T03:20:49;98416.34;;;-1.44;69.50
63500;BME280;49654;51.142;14.924;2022-12-16T03:23:23;98400.50;;;-1.59;69.48
63500;BME280;49654;51.142;14.924;2022-12-16T03:25:53;98374.59;;;-1.86;69.48
63500;BME280;49654;51.142;14.924;2022-12-16T03:28:29;98414.75;;;-1.45;69.68
63500;BME280;49654;51.142;14.924;2022-12-16T03:31:07;98398.31;;;-1.41;69.25
63500;BME280;49654;51.142;14.924;2022-12-16T03:33:41;98337.00;;;-1.83;69.34
63500;BME280;49654;51.142;14.924;2022-12-16T03:36:15;98322.63;;;-2.06;69.04
63500;BME280;49654;51.142;14.924;2022-12-16T03:38:44;98325.88;;;-2.15;69.54
63500;BME280;49654;51.142;14.924;2022-12-16T03:41:14;98420.88;;;-1.47;69.59
63500;BME280;49654;51.142;14.924;2022-12-16T03:43:42;98355.97;;;-1.87;70.22
63500;BME280;49654;51.142;14.924;2022-12-16T03:46:10;98398.53;;;-1.78;70.96
63500;BME280;49654;51.142;14.924;2022-12-16T03:48:46;98411.84;;;-1.52;70.75
63500;BME280;49654;51.142;14.924;2022-12-16T03:51:13;98380.81;;;-1.57;70.21
63500;BME280;49654;51.142;14.924;2022-12-16T03:53:40;98411.00;;;-1.30;70.16
63500;BME280;49654;51.142;14.924;2022-12-16T03:56:08;98401.88;;;-1.43;70.11
63500;BME280;49654;51.142;14.924;2022-12-16T03:58:36;98406.84;;;-1.42;70.33
63500;BME280;49654;51.142;14.924;2022-12-16T04:01:05;98397.09;;;-1.26;70.25
63500;BME280;49654;51.142;14.924;2022-12-16T04:03:32;98402.09;;;-1.24;70.08
63500;BME280;49654;51.142;14.924;2022-12-16T04:06:00;98403.38;;;-1.30;70.23
63500;BME280;49654;51.142;14.924;2022-12-16T04:08:28;98398.38;;;-1.20;70.45
63500;BME280;49654;51.142;14.924;2022-12-16T04:10:56;98394.41;;;-1.13;69.99
63500;BME280;49654;51.142;14.924;2022-12-16T04:13:40;98382.97;;;-1.30;69.78
63500;BME280;49654;51.142;14.924;2022-12-16T04:16:26;98360.69;;;-1.48;69.95
63500;BME280;49654;51.142;14.924;2022-12-16T04:19:18;98406.78;;;-1.08;69.40
63500;BME280;49654;51.142;14.924;2022-12-16T04:22:07;98389.91;;;-1.09;69.80
63500;BME280;49654;51.142;14.924;2022-12-16T04:24:54;98411.66;;;-0.94;69.70
63500;BME280;49654;51.142;14.924;2022-12-16T04:27:21;98401.25;;;-1.02;70.11
63500;BME280;49654;51.142;14.924;2022-12-16T04:29:52;98402.09;;;-1.24;70.57
63500;BME280;49654;51.142;14.924;2022-12-16T04:32:37;98406.03;;;-1.20;70.71
63500;BME280;49654;51.142;14.924;2022-12-16T04:35:22;98411.31;;;-1.12;70.23
63500;BME280;49654;51.142;14.924;2022-12-16T04:38:09;98406.78;;;-1.08;70.42
63500;BME280;49654;51.142;14.924;2022-12-16T04:40:53;98420.84;;;-1.14;70.37
63500;BME280;49654;51.142;14.924;2022-12-16T04:43:38;98413.03;;;-1.01;70.48
63500;BME280;49654;51.142;14.924;2022-12-16T04:46:22;98401.63;;;-1.18;70.92
63500;BME280;49654;51.142;14.924;2022-12-16T04:49:12;98428.78;;;-0.96;70.91
63500;BME280;49654;51.142;14.924;2022-12-16T04:51:57;98431.41;;;-0.86;70.93
63500;BME280;49654;51.142;14.924;2022-12-16T04:54:43;98404.69;;;-1.03;70.84
63500;BME280;49654;51.142;14.924;2022-12-16T04:57:27;98398.94;;;-1.16;70.69
63500;BME280;49654;51.142;14.924;2022-12-16T05:00:12;98414.06;;;-0.92;70.47
63500;BME280;49654;51.142;14.924;2022-12-16T05:02:57;98430.88;;;-1.01;70.30
63500;BME280;49654;51.142;14.924;2022-12-16T05:05:41;98448.06;;;-1.14;70.98
63500;BME280;49654;51.142;14.924;2022-12-16T05:08:26;98457.63;;;-0.95;70.43
63500;BME280;49654;51.142;14.924;2022-12-16T05:11:11;98450.56;;;-1.03;70.12
63500;BME280;49654;51.142;14.924;2022-12-16T05:13:56;98465.41;;;-0.97;70.47
63500;BME280;49654;51.142;14.924;2022-12-16T05:16:40;98481.22;;;-0.82;70.34
63500;BME280;49654;51.142;14.924;2022-12-16T05:19:25;98483.47;;;-0.89;70.14
63500;BME280;49654;51.142;14.924;2022-12-16T05:22:21;98489.38;;;-0.88;70.08
63500;BME280;49654;51.142;14.924;2022-12-16T05:25:06;98501.44;;;-1.02;70.30
63500;BME280;49654;51.142;14.924;2022-12-16T05:27:53;98488.69;;;-1.13;70.43
63500;BME280;49654;51.142;14.924;2022-12-16T05:30:37;98485.34;;;-1.13;70.10
63500;BME280;49654;51.142;14.924;2022-12-16T05:33:22;98500.84;;;-1.05;70.52
63500;BME280;49654;51.142;14.924;2022-12-16T05:36:06;98497.94;;;-1.01;70.45
63500;BME280;49654;51.142;14.924;2022-12-16T05:38:51;98474.44;;;-1.04;70.01
63500;BME280;49654;51.142;14.924;2022-12-16T05:41:36;98496.09;;;-0.98;70.31
63500;BME280;49654;51.142;14.924;2022-12-16T05:44:22;98498.53;;;-1.08;70.31
63500;BME280;49654;51.142;14.924;2022-12-16T05:47:07;98490.91;;;-1.19;70.28
63500;BME280;49654;51.142;14.924;2022-12-16T05:49:52;98498.09;;;-1.36;70.79
63500;BME280;49654;51.142;14.924;2022-12-16T05:52:36;98480.25;;;-1.36;71.34
63500;BME280;49654;51.142;14.924;2022-12-16T05:55:21;98485.00;;;-1.31;70.76
63500;BME280;49654;51.142;14.924;2022-12-16T05:58:08;98439.97;;;-1.53;71.11
63500;BME280;49654;51.142;14.924;2022-12-16T06:00:54;98419.81;;;-1.90;70.95
63500;BME280;49654;51.142;14.924;2022-12-16T06:03:39;98470.50;;;-1.64;71.37
63500;BME280;49654;51.142;14.924;2022-12-16T06:06:29;98483.00;;;-1.72;71.52
63500;BME280;49654;51.142;14.924;2022-12-16T06:09:13;98452.19;;;-1.92;72.07
63500;BME280;49654;51.142;14.924;2022-12-16T06:11:58;98476.16;;;-1.83;72.60
63500;BME280;49654;51.142;14.924;2022-12-16T06:14:39;98476.94;;;-1.94;72.84
63500;BME280;49654;51.142;14.924;2022-12-16T06:17:25;98467.38;;;-1.79;72.87
63500;BME280;49654;51.142;14.924;2022-12-16T06:20:10;98475.81;;;-1.67;72.55
63500;BME280;49654;51.142;14.924;2022-12-16T06:22:54;98485.56;;;-1.61;71.73
63500;BME280;49654;51.142;14.924;2022-12-16T06:25:39;98487.63;;;-1.55;71.52
63500;BME280;49654;51.142;14.924;2022-12-16T06:28:24;98488.31;;;-1.64;71.45
63500;BME280;49654;51.142;14.924;2022-12-16T06:31:09;98493.66;;;-1.56;71.76
63500;BME280;49654;51.142;14.924;2022-12-16T06:33:55;98497.72;;;-1.54;71.46
63500;BME280;49654;51.142;14.924;2022-12-16T06:36:40;98503.38;;;-1.50;71.40
63500;BME280;49654;51.142;14.924;2022-12-16T06:39:24;98506.50;;;-1.58;71.69
63500;BME280;49654;51.142;14.924;2022-12-16T06:42:23;98500.94;;;-1.63;71.62
63500;BME280;49654;51.142;14.924;2022-12-16T06:45:08;98512.41;;;-1.46;71.44
63500;BME280;49654;51.142;14.924;2022-12-16T06:47:53;98514.06;;;-1.45;71.30
63500;BME280;49654;51.142;14.924;2022-12-16T06:50:39;98515.31;;;-1.62;71.53
63500;BME280;49654;51.142;14.924;2022-12-16T06:53:23;98531.28;;;-1.48;71.64
63500;BME280;49654;51.142;14.924;2022-12-16T06:56:07;98498.03;;;-1.69;71.67
63500;BME280;49654;51.142;14.924;2022-12-16T06:58:52;98504.06;;;-1.59;71.04
63500;BME280;49654;51.142;14.924;2022-12-16T07:01:36;98523.56;;;-1.36;71.21
63500;BME280;49654;51.142;14.924;2022-12-16T07:04:20;98519.84;;;-1.43;71.18
63500;BME280;49654;51.142;14.924;2022-12-16T07:07:06;98516.53;;;-1.67;71.41
63500;BME280;49654;51.142;14.924;2022-12-16T07:09:56;98530.94;;;-1.44;71.15
63500;BME280;49654;51.142;14.924;2022-12-16T07:12:41;98532.22;;;-1.38;70.95
63500;BME280;49654;51.142;14.924;2022-12-16T07:15:26;98530.94;;;-1.44;70.47
63500;BME280;49654;51.142;14.924;2022-12-16T07:18:10;98528.63;;;-1.47;71.02
63500;BME280;49654;51.142;14.924;2022-12-16T07:20:55;98527.69;;;-1.57;70.89
63500;BME280;49654;51.142;14.924;2022-12-16T07:23:41;98526.28;;;-1.50;70.97
63500;BME280;49654;51.142;14.924;2022-12-16T07:26:25;98551.31;;;-1.44;70.98
63500;BME280;49654;51.142;14.924;2022-12-16T07:29:10;98522.25;;;-1.53;70.94
63500;BME280;49654;51.142;14.924;2022-12-16T07:31:54;98555.50;;;-1.32;70.09
63500;BME280;49654;51.142;14.924;2022-12-16T07:34:39;98545.28;;;-1.43;70.35
63500;BME280;49654;51.142;14.924;2022-12-16T07:37:23;98572.16;;;-1.39;70.68
63500;BME280;49654;51.142;14.924;2022-12-16T07:40:10;98576.13;;;-1.12;70.40
63500;BME280;49654;51.142;14.924;2022-12-16T07:42:54;98578.31;;;-1.08;69.49
63500;BME280;49654;51.142;14.924;2022-12-16T07:45:39;98566.16;;;-1.04;69.53
63500;BME280;49654;51.142;14.924;2022-12-16T07:48:23;98561.53;;;-1.10;69.05
63500;BME280;49654;51.142;14.924;2022-12-16T07:51:08;98578.09;;;-1.05;69.47
63500;BME280;49654;51.142;14.924;2022-12-16T07:53:52;98579.38;;;-1.10;69.12
63500;BME280;49654;51.142;14.924;2022-12-16T07:56:38;98563.97;;;-1.20;69.36
63500;BME280;49654;51.142;14.924;2022-12-16T07:59:22;98578.91;;;-1.15;68.56
63500;BME280;49654;51.142;14.924;2022-12-16T08:02:08;98590.06;;;-0.94;69.05
63500;BME280;49654;51.142;14.924;2022-12-16T08:04:52;98591.44;;;-0.90;68.43
63500;BME280;49654;51.142;14.924;2022-12-16T08:07:38;98588.31;;;-0.71;68.71
63500;BME280;49654;51.142;14.924;2022-12-16T08:10:23;98597.34;;;-0.67;68.44
63500;BME280;49654;51.142;14.924;2022-12-16T08:13:20;98592.56;;;-0.60;68.09
63500;BME280;49654;51.142;14.924;2022-12-16T08:16:05;98588.47;;;-0.40;67.80
63500;BME280;49654;51.142;14.924;2022-12-16T08:18:50;98603.16;;;-0.21;67.12
63500;BME280;49654;51.142;14.924;2022-12-16T08:21:35;98598.28;;;-0.13;66.50
63500;BME280;49654;51.142;14.924;2022-12-16T08:24:19;98614.19;;;-0.21;65.89
63500;BME280;49654;51.142;14.924;2022-12-16T08:27:04;98611.53;;;-0.31;65.77
63500;BME280;49654;51.142;14.924;2022-12-16T08:29:49;98619.69;;;-0.48;66.45
63500;BME280;49654;51.142;14.924;2022-12-16T08:32:34;98600.44;;;-0.52;66.37
63500;BME280;49654;51.142;14.924;2022-12-16T08:35:19;98626.03;;;-0.20;66.85
63500;BME280;49654;51.142;14.924;2022-12-16T08:38:03;98625.38;;;-0.01;66.40
63500;BME280;49654;51.142;14.924;2022-12-16T08:40:47;98615.94;;;0.11;65.56
63500;BME280;49654;51.142;14.924;2022-12-16T08:43:34;98634.28;;;0.16;65.00
63500;BME280;49654;51.142;14.924;2022-12-16T08:46:20;98637.69;;;0.05;64.82
63500;BME280;49654;51.142;14.924;2022-12-16T08:49:04;98636.34;;;0.22;65.26
63500;BME280;49654;51.142;14.924;2022-12-16T08:51:49;98635.34;;;0.34;64.66
63500;BME280;49654;51.142;14.924;2022-12-16T08:54:34;98648.88;;;0.46;64.74
63500;BME280;49654;51.142;14.924;2022-12-16T08:57:19;98639.63;;;0.45;64.08
63500;BME280;49654;51.142;14.924;2022-12-16T09:00:04;98627.16;;;0.31;64.03
63500;BME280;49654;51.142;14.924;2022-12-16T09:02:54;98654.59;;;0.38;63.74
63500;BME280;49654;51.142;14.924;2022-12-16T09:05:38;98662.06;;;0.62;63.44
63500;BME280;49654;51.142;14.924;2022-12-16T09:08:23;98654.41;;;0.62;63.70
63500;BME280;49654;51.142;14.924;2022-12-16T09:11:07;98643.59;;;0.38;64.04
63500;BME280;49654;51.142;14.924;2022-12-16T09:13:51;98657.91;;;0.29;64.42
63500;BME280;49654;51.142;14.924;2022-12-16T09:16:36;98653.56;;;0.41;63.84
63500;BME280;49654;51.142;14.924;2022-12-16T09:19:22;98642.72;;;0.28;63.80
63500;BME280;49654;51.142;14.924;2022-12-16T09:22:07;98633.66;;;0.23;63.78
63500;BME280;49654;51.142;14.924;2022-12-16T09:24:51;98649.41;;;0.61;64.20
63500;BME280;49654;51.142;14.924;2022-12-16T09:27:35;98650.66;;;0.66;63.26
63500;BME280;49654;51.142;14.924;2022-12-16T09:30:20;98618.50;;;0.64;63.53
63500;BME280;49654;51.142;14.924;2022-12-16T09:33:04;98649.09;;;0.96;63.57
63500;BME280;49654;51.142;14.924;2022-12-16T09:35:50;98625.84;;;0.57;62.89
63500;BME280;49654;51.142;14.924;2022-12-16T09:38:35;98603.53;;;0.38;63.58
63500;BME280;49654;51.142;14.924;2022-12-16T09:41:27;98669.31;;;0.99;62.65
63500;BME280;49654;51.142;14.924;2022-12-16T09:44:21;98670.41;;;1.06;62.58
63500;BME280;49654;51.142;14.924;2022-12-16T09:47:13;98661.31;;;0.92;62.31
63500;BME280;49654;51.142;14.924;2022-12-16T09:50:18;98647.56;;;1.14;62.01
63500;BME280;49654;51.142;14.924;2022-12-16T09:53:10;98667.13;;;1.46;61.15
63500;BME280;49654;51.142;14.924;2022-12-16T09:55:55;98666.59;;;1.52;61.24
63500;BME280;49654;51.142;14.924;2022-12-16T09:58:45;98669.97;;;1.53;61.14
63500;BME280;49654;51.142;14.924;2022-12-16T10:01:33;98666.38;;;1.65;60.92
63500;BME280;49654;51.142;14.924;2022-12-16T10:04:19;98672.09;;;1.88;60.08
63500;BME280;49654;51.142;14.924;2022-12-16T10:07:07;98658.63;;;1.86;59.30
63500;BME280;49654;51.142;14.924;2022-12-16T10:10:00;98674.78;;;1.46;60.68
63500;BME280;49654;51.142;14.924;2022-12-16T10:13:02;98678.66;;;1.40;60.97
63500;BME280;49654;51.142;14.924;2022-12-16T10:15:53;98681.69;;;1.55;60.76
63500;BME280;49654;51.142;14.924;2022-12-16T10:18:46;98664.38;;;1.68;59.62
63500;BME280;49654;51.142;14.924;2022-12-16T10:21:36;98655.41;;;1.93;58.52
63500;BME280;49654;51.142;14.924;2022-12-16T10:24:32;98684.72;;;1.80;58.74
63500;BME280;49654;51.142;14.924;2022-12-16T10:27:26;98680.72;;;1.96;59.69
63500;BME280;49654;51.142;14.924;2022-12-16T10:30:15;98680.63;;;2.08;58.67
63500;BME280;49654;51.142;14.924;2022-12-16T10:33:00;98677.78;;;2.01;58.61
63500;BME280;49654;51.142;14.924;2022-12-16T10:35:47;98667.16;;;2.06;58.72
63500;BME280;49654;51.142;14.924;2022-12-16T10:38:37;98664.22;;;1.70;58.67
63500;BME280;49654;51.142;14.924;2022-12-16T10:41:25;98671.03;;;2.00;59.48
63500;BME280;49654;51.142;14.924;2022-12-16T10:44:19;98671.16;;;1.89;59.11
63500;BME280;49654;51.142;14.924;2022-12-16T10:47:06;98664.38;;;1.68;59.51
63500;BME280;49654;51.142;14.924;2022-12-16T10:49:55;98628.84;;;1.85;59.24
63500;BME280;49654;51.142;14.924;2022-12-16T10:52:49;98675.09;;;1.93;58.79
63500;BME280;49654;51.142;14.924;2022-12-16T10:55:36;98677.25;;;1.97;59.25
63500;BME280;49654;51.142;14.924;2022-12-16T10:58:32;98682.69;;;2.43;58.47
63500;BME280;49654;51.142;14.924;2022-12-16T11:01:22;98683.50;;;2.34;58.20
63500;BME280;49654;51.142;14.924;2022-12-16T11:04:26;98688.50;;;2.45;57.86
63500;BME280;49654;51.142;14.924;2022-12-16T11:07:25;98682.81;;;2.32;58.73
63500;BME280;49654;51.142;14.924;2022-12-16T11:10:25;98688.41;;;1.87;59.58
63500;BME280;49654;51.142;14.924;2022-12-16T11:13:14;98685.78;;;1.67;60.11
63500;BME280;49654;51.142;14.924;2022-12-16T11:16:09;98695.25;;;0.94;61.29
63500;BME280;49654;51.142;14.924;2022-12-16T11:18:56;98702.66;;;1.49;61.20
63500;BME280;49654;51.142;14.924;2022-12-16T11:21:42;98713.25;;;1.14;60.97
63500;BME280;49654;51.142;14.924;2022-12-16T11:24:27;98696.25;;;0.82;62.30
63500;BME280;49654;51.142;14.924;2022-12-16T11:27:15;98711.06;;;1.09;61.95
63500;BME280;49654;51.142;14.924;2022-12-16T11:30:01;98715.19;;;1.83;61.16
63500;BME280;49654;51.142;14.924;2022-12-16T11:32:49;98719.69;;;2.00;59.13
63500;BME280;49654;51.142;14.924;2022-12-16T11:35:41;98714.22;;;2.24;58.72
63500;BME280;49654;51.142;14.924;2022-12-16T11:38:30;98693.75;;;2.34;58.39
63500;BME280;49654;51.142;14.924;2022-12-16T11:41:25;98721.59;;;2.08;57.77
63500;BME280;49654;51.142;14.924;2022-12-16T11:44:17;98720.41;;;2.21;58.69
63500;BME280;49654;51.142;14.924;2022-12-16T11:47:10;98721.25;;;2.41;58.58
63500;BME280;49654;51.142;14.924;2022-12-16T11:49:59;98729.22;;;2.38;57.64
63500;BME280;49654;51.142;14.924;2022-12-16T11:52:52;98709.91;;;2.15;58.56
63500;BME280;49654;51.142;14.924;2022-12-16T11:55:39;98731.06;;;2.17;58.41
63500;BME280;49654;51.142;14.924;2022-12-16T11:58:33;98729.66;;;2.53;58.00
63500;BME280;49654;51.142;14.924;2022-12-16T12:01:24;98736.13;;;2.67;57.31
63500;BME280;49654;51.142;14.924;2022-12-16T12:04:10;98752.41;;;2.27;58.35
63500;BME280;49654;51.142;14.924;2022-12-16T12:07:12;98743.19;;;1.74;58.56
63500;BME280;49654;51.142;14.924;2022-12-16T12:10:10;98751.03;;;1.83;59.68
63500;BME280;49654;51.142;14.924;2022-12-16T12:13:02;98736.75;;;1.80;59.39
63500;BME280;49654;51.142;14.924;2022-12-16T12:15:52;98743.28;;;1.94;59.56
63500;BME280;49654;51.142;14.924;2022-12-16T12:18:43;98736.59;;;2.22;59.39
63500;BME280;49654;51.142;14.924;2022-12-16T12:21:38;98741.59;;;2.23;58.96
63500;BME280;49654;51.142;14.924;2022-12-16T12:24:29;98744.97;;;2.24;58.94
63500;BME280;49654;51.142;14.924;2022-12-16T12:27:27;98756.03;;;1.84;59.06
63500;BME280;49654;51.142;14.924;2022-12-16T12:30:16;98743.81;;;1.36;59.86
63500;BME280;49654;51.142;14.924;2022-12-16T12:33:15;98759.47;;;1.64;59.91
63500;BME280;49654;51.142;14.924;2022-12-16T12:36:10;98764.34;;;1.46;60.05
63500;BME280;49654;51.142;14.924;2022-12-16T12:39:02;98759.97;;;1.37;59.48
63500;BME280;49654;51.142;14.924;2022-12-16T12:42:00;98760.53;;;1.19;60.90
63500;BME280;49654;51.142;14.924;2022-12-16T12:44:58;98763.91;;;1.20;61.29
63500;BME280;49654;51.142;14.924;2022-12-16T12:47:49;98773.44;;;0.97;61.94
63500;BME280;49654;51.142;14.924;2022-12-16T12:50:42;98779.94;;;1.22;61.45
63500;BME280;49654;51.142;14.924;2022-12-16T12:53:38;98774.84;;;0.69;62.11
63500;BME280;49654;51.142;14.924;2022-12-16T12:56:30;98778.25;;;0.90;62.12
63500;BME280;49654;51.142;14.924;2022-12-16T12:59:24;98777.50;;;0.67;62.70
63500;BME280;49654;51.142;14.924;2022-12-16T13:02:16;98760.50;;;0.78;62.17
63500;BME280;49654;51.142;14.924;2022-12-16T13:05:05;98785.81;;;0.81;62.20
63500;BME280;49654;51.142;14.924;2022-12-16T13:07:49;98791.88;;;0.68;63.18
63500;BME280;49654;51.142;14.924;2022-12-16T13:10:35;98790.97;;;0.69;63.16
63500;BME280;49654;51.142;14.924;2022-12-16T13:13:35;98795.81;;;0.84;62.43
63500;BME280;49654;51.142;14.924;2022-12-16T13:19:55;98776.59;;;0.57;62.82
63500;BME280;49654;51.142;14.924;2022-12-16T13:22:40;98769.97;;;0.66;62.99
63500;BME280;49654;51.142;14.924;2022-12-16T13:25:36;98791.84;;;0.91;62.93
63500;BME280;49654;51.142;14.924;2022-12-16T13:28:24;98803.66;;;0.92;62.36
63500;BME280;49654;51.142;14.924;2022-12-16T13:31:09;98809.59;;;0.92;62.18
63500;BME280;49654;51.142;14.924;2022-12-16T13:33:58;98812.66;;;0.86;61.35
63500;BME280;49654;51.142;14.924;2022-12-16T13:36:52;98810.06;;;0.54;61.83
63500;BME280;49654;51.142;14.924;2022-12-16T13:39:40;98826.81;;;0.24;63.14
63500;BME280;49654;51.142;14.924;2022-12-16T13:42:33;98824.97;;;0.27;63.05
63500;BME280;49654;51.142;14.924;2022-12-16T13:45:37;98817.03;;;0.41;62.89
63500;BME280;49654;51.142;14.924;2022-12-16T13:48:31;98822.19;;;0.18;63.67
63500;BME280;49654;51.142;14.924;2022-12-16T13:55:13;98834.34;;;0.37;63.39
63500;BME280;49654;51.142;14.924;2022-12-16T13:58:04;98837.38;;;0.20;63.51
63500;BME280;49654;51.142;14.924;2022-12-16T14:00:54;98839.56;;;0.24;63.97
63500;BME280;49654;51.142;14.924;2022-12-16T14:03:42;98800.72;;;-0.02;64.23
63500;BME280;49654;51.142;14.924;2022-12-16T14:06:29;98839.00;;;0.10;64.09
63500;BME280;49654;51.142;14.924;2022-12-16T14:09:29;98870.47;;;0.21;63.93
63500;BME280;49654;51.142;14.924;2022-12-16T14:12:38;98852.72;;;0.09;64.50
63500;BME280;49654;51.142;14.924;2022-12-16T14:15:28;98834.09;;;-0.27;64.67
63500;BME280;49654;51.142;14.924;2022-12-16T14:18:23;98869.28;;;0.03;65.39
63500;BME280;49654;51.142;14.924;2022-12-16T14:21:15;98854.22;;;0.00;64.28
63500;BME280;49654;51.142;14.924;2022-12-16T14:24:07;98872.19;;;-0.02;65.67